createdAt,value
2024-02-29T00:01:23.844Z,71.55
2024-02-29T00:04:41.373Z,69.28
2024-02-29T00:08:00.673Z,70.05
2024-02-29T00:11:18.266Z,68.35
2024-02-29T00:14:36.014Z,59.43
2024-02-29T00:17:53.808Z,60.70
2024-02-29T00:21:12.205Z,60.88
2024-02-29T00:24:29.773Z,56.25
2024-02-29T00:27:47.472Z,54.30
2024-02-29T00:31:05.614Z,53.28
2024-02-29T00:34:23.370Z,51.58
2024-02-29T00:37:41.195Z,55.18
2024-02-29T00:40:58.749Z,51.18
2024-02-29T00:44:16.492Z,53.55
2024-02-29T00:47:34.337Z,47.40
2024-02-29T00:50:52.165Z,53.35
2024-02-29T00:54:09.858Z,57.55
2024-02-29T00:57:27.467Z,52.55
2024-02-29T01:00:45.149Z,56.70
2024-02-29T01:04:02.872Z,58.15
2024-02-29T01:07:21.016Z,55.70
2024-02-29T01:10:38.897Z,55.25
2024-02-29T01:13:56.849Z,56.45
2024-02-29T01:17:14.220Z,58.35
2024-02-29T01:20:32.808Z,59.13
2024-02-29T01:23:50.412Z,59.35
2024-02-29T01:27:07.942Z,61.10
2024-02-29T01:30:26.850Z,54.78
2024-02-29T01:33:44.559Z,55.15
2024-02-29T01:37:02.287Z,53.43
2024-02-29T01:40:21.786Z,56.60
2024-02-29T01:43:39.354Z,57.15
2024-02-29T01:46:56.927Z,58.68
2024-02-29T01:50:19.104Z,56.73
2024-02-29T01:53:36.746Z,55.53
2024-02-29T01:56:54.449Z,61.53
2024-02-29T02:00:14.620Z,58.35
2024-02-29T02:03:32.570Z,57.58
2024-02-29T02:06:51.183Z,57.85
2024-02-29T02:10:09.590Z,52.95
2024-02-29T02:13:27.304Z,57.38
2024-02-29T02:16:45.038Z,61.45
2024-02-29T02:20:03.133Z,76.93
2024-02-29T02:23:20.866Z,85.68
2024-02-29T02:26:38.432Z,85.80
2024-02-29T02:29:56.235Z,83.42
2024-02-29T02:33:14.332Z,80.15
2024-02-29T02:36:31.766Z,82.05
2024-02-29T02:39:49.872Z,76.08
2024-02-29T02:43:07.556Z,71.18
2024-02-29T02:46:25.694Z,74.93
2024-02-29T02:49:44.036Z,71.40
2024-02-29T02:53:01.625Z,69.18
2024-02-29T02:56:19.303Z,69.90
2024-02-29T02:59:37.893Z,84.18
2024-02-29T03:02:55.425Z,64.48
2024-02-29T03:06:15.739Z,70.40
2024-02-29T03:09:33.601Z,68.08
2024-02-29T03:12:52.762Z,74.63
2024-02-29T03:16:11.120Z,74.15
2024-02-29T03:19:28.703Z,78.48
2024-02-29T03:22:47.781Z,80.18
2024-02-29T03:26:06.307Z,77.30
2024-02-29T03:29:24.437Z,75.88
2024-02-29T03:32:42.122Z,67.63
2024-02-29T03:35:59.912Z,59.25
2024-02-29T03:39:17.790Z,52.35
2024-02-29T03:42:35.611Z,49.60
2024-02-29T03:45:53.159Z,49.85
2024-02-29T03:49:14.212Z,50.83
2024-02-29T03:52:31.893Z,49.45
2024-02-29T03:55:50.121Z,50.10
2024-02-29T03:59:07.876Z,45.95
2024-02-29T04:02:25.639Z,47.28
2024-02-29T04:05:43.243Z,44.33
2024-02-29T04:09:00.999Z,47.65
2024-02-29T04:12:19.427Z,52.00
2024-02-29T04:15:37.163Z,50.53
2024-02-29T04:18:54.515Z,46.43
2024-02-29T04:22:12.487Z,49.05
2024-02-29T04:25:30.310Z,49.58
2024-02-29T04:28:47.839Z,46.95
2024-02-29T04:32:05.784Z,49.70
2024-02-29T04:35:23.605Z,43.85
2024-02-29T04:38:40.654Z,48.40
2024-02-29T04:45:17.796Z,42.58
2024-02-29T04:48:36.488Z,44.95
2024-02-29T04:51:54.248Z,39.90
2024-02-29T04:55:12.739Z,46.80
2024-02-29T04:58:30.686Z,43.65
2024-02-29T05:01:48.576Z,45.20
2024-02-29T05:05:08.349Z,48.15
2024-02-29T05:08:25.836Z,52.78
2024-02-29T05:11:43.665Z,52.08
2024-02-29T05:15:01.566Z,47.03
2024-02-29T05:18:20.085Z,55.63
2024-02-29T05:21:38.344Z,61.70
2024-02-29T05:24:55.962Z,67.70
2024-02-29T05:28:14.113Z,72.73
2024-02-29T05:31:31.848Z,77.75
2024-02-29T05:34:49.354Z,85.22
2024-02-29T05:38:08.242Z,78.13
2024-02-29T05:41:25.886Z,78.15
2024-02-29T05:44:43.859Z,86.90
2024-02-29T05:48:01.323Z,88.50
2024-02-29T05:51:19.027Z,91.78
2024-02-29T05:54:36.647Z,85.80
2024-02-29T05:57:54.395Z,92.80
2024-02-29T06:01:12.882Z,81.00
2024-02-29T06:04:30.945Z,86.20
2024-02-29T06:07:48.783Z,75.28
2024-02-29T06:11:06.460Z,79.28
2024-02-29T06:14:26.692Z,79.50
2024-02-29T06:17:44.475Z,83.28
2024-02-29T06:21:02.426Z,82.98
2024-02-29T06:24:21.169Z,70.05
2024-02-29T06:27:41.667Z,70.35
2024-02-29T06:30:59.602Z,76.23
2024-02-29T06:34:19.295Z,63.73
2024-02-29T06:37:37.069Z,73.43
2024-02-29T06:40:55.599Z,75.98
2024-02-29T06:44:14.197Z,125.35
2024-02-29T06:47:31.739Z,68.63
2024-02-29T06:50:49.681Z,63.33
2024-02-29T06:54:07.586Z,65.73
2024-02-29T06:57:25.305Z,65.88
2024-02-29T07:00:43.255Z,68.13
2024-02-29T07:04:01.074Z,61.60
2024-02-29T07:07:18.996Z,67.18
2024-02-29T07:10:36.921Z,60.25
2024-02-29T07:13:54.521Z,64.43
2024-02-29T07:17:12.472Z,66.00
2024-02-29T07:20:30.340Z,62.80
2024-02-29T07:23:47.894Z,62.83
2024-02-29T07:27:05.696Z,56.50
2024-02-29T07:30:23.682Z,62.18
2024-02-29T07:33:41.661Z,67.10
2024-02-29T07:36:59.688Z,64.38
2024-02-29T07:40:18.637Z,66.60
2024-02-29T07:43:36.357Z,60.98
2024-02-29T07:46:53.888Z,61.25
2024-02-29T07:50:12.949Z,55.85
2024-02-29T07:53:31.465Z,59.63
2024-02-29T07:56:52.321Z,56.65
2024-02-29T08:00:12.120Z,67.23
2024-02-29T08:03:29.636Z,67.43
2024-02-29T08:06:47.457Z,66.60
2024-02-29T08:10:05.297Z,67.28
2024-02-29T08:13:23.075Z,66.05
2024-02-29T08:16:40.841Z,79.80
2024-02-29T08:19:58.519Z,66.35
2024-02-29T08:23:17.792Z,63.83
2024-02-29T08:26:35.544Z,67.13
2024-02-29T08:29:53.071Z,62.20
2024-02-29T08:33:10.927Z,60.93
2024-02-29T08:36:30.856Z,63.00
2024-02-29T08:39:48.423Z,57.30
2024-02-29T08:43:05.671Z,93.08
2024-02-29T08:46:23.558Z,71.93
2024-02-29T08:49:41.316Z,64.55
2024-02-29T08:52:59.412Z,61.98
2024-02-29T08:56:17.187Z,83.63
2024-02-29T08:59:34.772Z,74.18
2024-02-29T09:02:52.597Z,75.93
2024-02-29T09:06:10.436Z,104.13
2024-02-29T09:09:30.194Z,64.83
2024-02-29T09:12:48.920Z,54.93
2024-02-29T09:16:06.517Z,56.35
2024-02-29T09:19:24.406Z,63.03
2024-02-29T09:22:42.686Z,57.90
2024-02-29T09:26:00.539Z,56.88
2024-02-29T09:29:18.024Z,52.78
2024-02-29T09:32:35.683Z,57.25
2024-02-29T09:35:55.330Z,59.70
2024-02-29T09:39:13.142Z,52.98
2024-02-29T09:42:31.270Z,61.93
2024-02-29T09:45:50.763Z,58.85
2024-02-29T09:49:10.183Z,59.63
2024-02-29T09:52:28.295Z,73.75
2024-02-29T09:55:46.703Z,78.98
2024-02-29T09:59:08.695Z,53.13
2024-02-29T10:02:26.557Z,47.98
2024-02-29T10:05:44.347Z,59.25
2024-02-29T10:09:08.899Z,56.00
2024-02-29T10:12:31.138Z,53.40
2024-02-29T10:15:50.271Z,78.18
2024-02-29T10:19:09.389Z,66.45
2024-02-29T10:22:30.008Z,55.05
2024-02-29T10:25:53.987Z,55.10
2024-02-29T10:29:16.932Z,52.18
2024-02-29T10:32:34.584Z,50.53
2024-02-29T10:35:56.515Z,56.08
2024-02-29T10:39:17.442Z,55.80
2024-02-29T10:42:35.316Z,48.00
2024-02-29T10:45:56.463Z,62.23
2024-02-29T10:49:20.008Z,59.80
2024-02-29T10:52:40.858Z,54.28
2024-02-29T10:56:03.260Z,49.73
2024-02-29T10:59:24.857Z,67.23
2024-02-29T11:03:07.741Z,53.63
2024-02-29T11:09:47.031Z,52.63
2024-02-29T11:13:14.648Z,48.70
2024-02-29T11:16:32.714Z,52.25
2024-02-29T11:19:54.868Z,62.53
2024-02-29T11:23:18.156Z,49.95
2024-02-29T11:26:40.795Z,49.05
2024-02-29T11:30:06.830Z,51.15
2024-02-29T11:33:27.708Z,45.50
2024-02-29T11:36:47.841Z,44.63
2024-02-29T11:40:15.381Z,54.13
2024-02-29T11:43:33.743Z,51.63
2024-02-29T11:47:00.624Z,56.48
2024-02-29T11:50:21.312Z,55.73
2024-02-29T11:53:45.083Z,50.05
2024-02-29T11:57:04.673Z,58.83
2024-02-29T12:00:27.895Z,54.38
2024-02-29T12:03:46.572Z,80.13
2024-02-29T12:07:05.042Z,67.43
2024-02-29T12:10:23.374Z,61.03
2024-02-29T12:13:40.859Z,61.20
2024-02-29T12:16:58.816Z,56.03
2024-02-29T12:20:19.141Z,55.68
2024-02-29T12:23:39.426Z,63.38
2024-02-29T12:26:58.765Z,62.80
2024-02-29T12:30:19.395Z,60.75
2024-02-29T12:33:37.349Z,59.43
2024-02-29T12:36:57.018Z,57.38
2024-02-29T12:40:18.028Z,64.53
2024-02-29T12:43:35.837Z,58.98
2024-02-29T12:47:00.285Z,58.60
2024-02-29T12:50:19.091Z,65.40
2024-02-29T12:53:36.768Z,67.85
2024-02-29T12:56:56.258Z,59.83
2024-02-29T13:00:17.115Z,65.70
2024-02-29T13:03:34.905Z,59.50
2024-02-29T13:06:54.882Z,59.30
2024-02-29T13:10:15.745Z,65.58
2024-02-29T13:13:33.463Z,62.48
2024-02-29T13:16:54.144Z,63.25
2024-02-29T13:20:13.263Z,60.60
2024-02-29T13:23:31.340Z,58.10
2024-02-29T13:26:49.461Z,55.70
2024-02-29T13:30:11.186Z,57.93
2024-02-29T13:33:28.923Z,64.55
2024-02-29T13:36:46.731Z,60.00
2024-02-29T13:40:05.507Z,56.70
2024-02-29T13:43:23.143Z,63.33
2024-02-29T13:46:41.175Z,70.23
2024-02-29T13:49:58.931Z,60.40
2024-02-29T13:53:16.888Z,66.98
2024-02-29T13:56:36.270Z,54.30
2024-02-29T13:59:56.277Z,57.15
2024-02-29T14:03:14.297Z,61.45
2024-02-29T14:06:34.937Z,53.10
2024-02-29T14:09:53.607Z,58.45
2024-02-29T14:13:11.960Z,58.80
2024-02-29T14:16:29.595Z,49.15
2024-02-29T14:19:47.309Z,48.53
2024-02-29T14:23:05.726Z,49.90
2024-02-29T14:26:24.205Z,53.13
2024-02-29T14:29:41.745Z,55.25
2024-02-29T14:33:01.215Z,55.38
2024-02-29T14:36:22.021Z,54.25
2024-02-29T14:39:39.723Z,50.85
2024-02-29T14:42:57.628Z,50.45
2024-02-29T14:46:15.315Z,53.95
2024-02-29T14:49:33.245Z,48.78
2024-02-29T14:52:52.427Z,53.03
2024-02-29T14:56:10.318Z,48.55
2024-02-29T14:59:27.717Z,48.80
2024-02-29T15:02:45.463Z,48.43
2024-02-29T15:06:02.897Z,53.10
2024-02-29T15:09:20.606Z,56.80
2024-02-29T15:12:38.178Z,58.65
2024-02-29T15:15:56.294Z,58.05
2024-02-29T15:19:14.026Z,57.65
2024-02-29T15:22:33.204Z,59.25
2024-02-29T15:25:51.616Z,59.63
2024-02-29T15:29:09.376Z,54.03
2024-02-29T15:32:27.046Z,52.28
2024-02-29T15:35:44.714Z,53.20
2024-02-29T15:39:02.477Z,55.78
2024-02-29T15:42:21.620Z,47.45
2024-02-29T15:45:38.970Z,60.03
2024-02-29T15:48:56.931Z,53.88
2024-02-29T15:52:15.428Z,50.03
2024-02-29T15:55:33.063Z,49.80
2024-02-29T15:58:50.999Z,81.78
2024-02-29T16:02:08.733Z,67.33
2024-02-29T16:05:27.541Z,51.13
2024-02-29T16:08:45.129Z,47.15
2024-02-29T16:12:03.787Z,49.55
2024-02-29T16:15:21.579Z,50.00
2024-02-29T16:18:39.104Z,52.18
2024-02-29T16:21:56.645Z,50.08
2024-02-29T16:25:15.524Z,50.00
2024-02-29T16:28:33.362Z,54.03
2024-02-29T16:31:51.107Z,50.10
2024-02-29T16:35:09.138Z,58.05
2024-02-29T16:38:27.400Z,51.95
2024-02-29T16:41:45.693Z,54.98
2024-02-29T16:45:03.530Z,52.25
2024-02-29T16:48:21.430Z,54.20
2024-02-29T16:51:38.950Z,53.73
2024-02-29T16:54:56.835Z,60.50
2024-02-29T16:58:14.918Z,54.95
2024-02-29T17:01:32.546Z,70.38
2024-02-29T17:04:51.886Z,70.23
2024-02-29T17:08:10.321Z,82.58
2024-02-29T17:11:27.988Z,58.00
2024-02-29T17:14:45.775Z,60.40
2024-02-29T17:18:03.364Z,56.00
2024-02-29T17:21:22.957Z,61.53
2024-02-29T17:24:42.354Z,61.60
2024-02-29T17:27:59.935Z,59.88
2024-02-29T17:31:17.524Z,55.93
2024-02-29T17:34:35.210Z,62.68
2024-02-29T17:37:52.958Z,63.40
2024-02-29T17:41:10.971Z,61.70
2024-02-29T17:44:28.819Z,66.45
2024-02-29T17:47:47.623Z,66.63
2024-02-29T17:51:04.752Z,64.88
2024-02-29T17:54:22.779Z,66.08
2024-02-29T17:57:40.318Z,66.43
2024-02-29T18:00:59.482Z,69.78
2024-02-29T18:04:17.139Z,72.53
2024-02-29T18:07:38.280Z,70.28
2024-02-29T18:10:54.755Z,72.03
2024-02-29T18:14:12.423Z,68.55
2024-02-29T18:17:30.408Z,63.55
2024-02-29T18:20:48.316Z,70.00
2024-02-29T18:24:05.949Z,74.13
2024-02-29T18:27:23.650Z,67.85
2024-02-29T18:30:42.365Z,68.65
2024-02-29T18:34:00.125Z,85.75
2024-02-29T18:37:18.731Z,78.38
2024-02-29T18:40:37.203Z,69.13
2024-02-29T18:43:54.916Z,75.30
2024-02-29T18:47:13.210Z,77.70
2024-02-29T18:50:30.915Z,74.18
2024-02-29T18:53:48.972Z,77.98
2024-02-29T18:57:06.872Z,73.68
2024-02-29T19:00:26.193Z,73.30
2024-02-29T19:03:43.638Z,94.38
2024-02-29T19:07:01.743Z,80.08
2024-02-29T19:10:20.665Z,71.63
2024-02-29T19:13:38.017Z,82.17
2024-02-29T19:16:55.807Z,78.58
2024-02-29T19:20:15.446Z,83.68
2024-02-29T19:23:33.222Z,82.65
2024-02-29T19:26:51.829Z,182.18
2024-02-29T19:30:10.741Z,85.85
2024-02-29T19:33:28.415Z,86.50
2024-02-29T19:36:45.935Z,80.35
2024-02-29T19:40:03.881Z,82.05
2024-02-29T19:43:24.201Z,80.38
2024-02-29T19:46:41.869Z,84.95
2024-02-29T19:49:59.523Z,85.75
2024-02-29T19:53:18.000Z,84.25
2024-02-29T19:56:35.609Z,78.93
2024-02-29T19:59:53.318Z,86.60
2024-02-29T20:03:11.532Z,82.43
2024-02-29T20:06:29.348Z,87.85
2024-02-29T20:09:47.795Z,91.60
2024-02-29T20:13:05.819Z,92.72
2024-02-29T20:16:23.860Z,95.33
2024-02-29T20:19:42.193Z,89.78
2024-02-29T20:23:01.303Z,93.63
2024-02-29T20:26:24.933Z,92.17
2024-02-29T20:29:43.076Z,99.55
2024-02-29T20:33:01.120Z,102.08
2024-02-29T20:36:19.373Z,99.08
2024-02-29T20:39:37.272Z,93.00
2024-02-29T20:42:54.975Z,96.65
2024-02-29T20:46:13.096Z,106.53
2024-02-29T20:49:31.360Z,93.85
2024-02-29T20:52:49.798Z,98.28
2024-02-29T20:56:08.017Z,100.73
2024-02-29T20:59:28.054Z,108.50
2024-02-29T21:02:48.252Z,92.45
2024-02-29T21:06:06.198Z,94.48
2024-02-29T21:09:24.829Z,92.55
2024-02-29T21:12:42.439Z,97.20
2024-02-29T21:16:00.883Z,98.78
2024-02-29T21:19:20.508Z,98.95
2024-02-29T21:22:38.094Z,104.10
2024-02-29T21:25:55.922Z,107.05
2024-02-29T21:29:13.440Z,97.58
2024-02-29T21:32:31.387Z,91.20
2024-02-29T21:35:50.925Z,106.25
2024-02-29T21:39:10.237Z,105.78
2024-02-29T21:42:27.698Z,98.35
2024-02-29T21:45:45.237Z,101.40
2024-02-29T21:49:03.136Z,104.50
2024-02-29T21:52:20.986Z,100.98
2024-02-29T21:55:38.608Z,108.83
2024-02-29T21:58:58.705Z,105.38
2024-02-29T22:02:17.365Z,105.30
2024-02-29T22:05:35.307Z,102.45
2024-02-29T22:08:53.802Z,107.08
2024-02-29T22:12:12.087Z,109.35
2024-02-29T22:15:29.929Z,101.83
2024-02-29T22:18:48.065Z,109.15
2024-02-29T22:22:05.860Z,102.00
2024-02-29T22:25:26.992Z,117.28
2024-02-29T22:28:44.575Z,109.65
2024-02-29T22:32:04.108Z,110.50
2024-02-29T22:35:22.892Z,115.08
2024-02-29T22:38:41.039Z,116.50
2024-02-29T22:42:02.205Z,111.28
2024-02-29T22:45:19.755Z,106.18
2024-02-29T22:48:38.211Z,115.80
2024-02-29T22:51:56.717Z,112.65
2024-02-29T22:55:15.695Z,119.38
2024-02-29T22:58:33.437Z,117.18
2024-02-29T23:01:51.674Z,120.03
2024-02-29T23:05:09.907Z,119.35
2024-02-29T23:08:27.496Z,125.40
2024-02-29T23:11:45.879Z,124.85
2024-02-29T23:15:03.286Z,122.15
2024-02-29T23:18:20.744Z,128.30
2024-02-29T23:21:38.551Z,126.78
2024-02-29T23:24:56.197Z,129.80
2024-02-29T23:28:14.508Z,125.48
2024-02-29T23:31:32.488Z,153.50
2024-02-29T23:34:50.239Z,140.80
2024-02-29T23:38:07.653Z,125.58
2024-02-29T23:41:26.252Z,129.53
2024-02-29T23:44:43.979Z,132.90
2024-02-29T23:48:01.549Z,122.20
2024-02-29T23:51:19.322Z,120.28
2024-02-29T23:54:36.781Z,133.33
2024-02-29T23:57:54.622Z,138.30
